22:17
Airports
Links
Donate
Help keep this website running!
PayPal
Bitcoin
METAR
BGJN 262150Z 28004KT 250V310 9999 BKN200 09/01 Q1001
Current Weather Conditions at BGJN
VFR 21:50:00 26-06-17
Altimeter:29.56 hg
Temp:9.0°c 48°f
Dew point:1.0°c 34°f
Wind:4 knots, 4.6 mph, 2 m/s, from 280°
Visibility:6.21 statute miles
20000(BKN) Broken
Past METAR reports
VFR 20:50:00 26-06-17
Altimeter:29.56 hg
Temp:9.0°c 48°f
Dew point:1.0°c 34°f
Wind:3 knots, 3.5 mph, 2 m/s, from 310°
Visibility:6.21 statute miles
20000(BKN) Broken
BGJN 262050Z 31003KT 9999 BKN200 09/01 Q1001
VFR 19:50:00 26-06-17
Altimeter:29.59 hg
Temp:8.0°c 46°f
Dew point:1.0°c 34°f
Wind:4 knots, 4.6 mph, 2 m/s, from 310°
Visibility:6.21 statute miles
20000(SCT) Scattered
BGJN 261950Z 31004KT 270V010 9999 SCT200 08/01 Q1002
VFR 18:50:00 26-06-17
Altimeter:29.59 hg
Temp:9.0°c 48°f
Dew point:1.0°c 34°f
Wind:4 knots, 4.6 mph, 2 m/s, from 320°
Visibility:6.21 statute miles
20000(SCT) Scattered
14000(FEW) A few
BGJN 261850Z 32004KT 290V010 9999 FEW140 SCT200 09/01 Q1002
VFR 17:50:00 26-06-17
Altimeter:29.59 hg
Temp:9.0°c 48°f
Dew point:1.0°c 34°f
Wind:4 knots, 4.6 mph, 2 m/s, from 330°
Visibility:6.21 statute miles
20000(SCT) Scattered
14000(FEW) A few
BGJN 261750Z 33004G14KT 250V040 9999 FEW140 SCT200 09/01 Q1002
VFR 16:50:00 26-06-17
Altimeter:29.59 hg
Temp:8.0°c 46°f
Dew point:1.0°c 34°f
Wind:6 knots, 6.9 mph, 3 m/s, from 330°
Visibility:6.21 statute miles
22000(FEW) A few
BGJN 261650Z 33006KT 9999 FEW220 08/01 Q1002
TAF
TAF BGJN 261722Z 2618/2624 VRB05KT 9999 FEW200
Forecast at BGJN
18:00 26-06-17 to 00:00 27-06-17
Wind:5 Knots from 360°
Visibility:6.21 statute miles
20000FEW A few